Time;durP1;ratioP1;P1;durP2;ratioP2;P2;SDS_P1;SDS_P2;PMS_P1;PMS_P2;Temp;Humidity;BMP_temperature;BMP_pressure;BME280_temperature;BME280_humidity;BME280_pressure;Samples;Min_cycle;Max_cycle;Signal;HPM_P1;HPM_P2
2023/10/13 11:53:51;;;;;;;35.20;15.50;;;;;;;16.11;100.00;101354.79;103272;1288;616090;-88
2023/10/13 12:01:01;;;;;;;35.70;15.40;;;;;;;-12.81;79.80;81083.95;102678;1292;1002018;-90
2023/10/13 12:15:09;;;;;;;40.60;17.40;;;;;;;-128.00;-1.00;-1.00;98542;1301;1061412;-89
2023/10/13 12:17:52;;;;;;;39.60;17.40;;;;;;;;;;104131;1279;600809;-90
2023/10/13 12:20:35;;;;;;;41.10;19.20;;;;;;;;;;104136;1283;60482;-89
2023/10/13 12:23:15;;;;;;;45.30;20.60;;;;;;;;;;104208;1282;60393;-89
2023/10/13 12:25:57;;;;;;;45.90;19.90;;;;;;;;;;103706;1289;61206;-90
2023/10/13 12:28:23;;;;;;;43.70;19.80;;;;;;;;;;103494;1284;61294;-89
2023/10/13 12:30:52;;;;;;;52.50;21.50;;;;;;;;;;103064;1282;438461;-88
2023/10/13 12:55:13;;;;;;;50.70;23.20;;;;;;;;;;103632;1286;62308;-88
2023/10/13 12:57:43;;;;;;;57.40;23.00;;;;;;;;;;103866;1283;60378;-89
2023/10/13 13:00:25;;;;;;;53.50;23.20;;;;;;;;;;103094;1294;600797;-89
2023/10/13 13:02:55;;;;;;;52.80;22.70;;;;;;;;;;103280;1289;60320;-90
2023/10/13 13:05:44;;;;;;;49.90;22.70;;;;;;;;;;102889;1304;600258;-90
2023/10/13 13:08:12;;;;;;;51.00;21.70;;;;;;;;;;102912;1305;60648;-89
2023/10/13 13:10:37;;;;;;;48.00;20.80;;;;;;;;;;103195;1291;60147;-91
2023/10/13 13:13:04;;;;;;;44.30;20.20;;;;;;;;;;103014;1304;60481;-89
2023/10/13 13:15:29;;;;;;;46.20;20.80;;;;;;;;;;103192;1295;60410;-88
2023/10/13 13:21:12;;;;;;;40.70;18.50;;;;;;;;;;103277;1288;600764;-90
2023/10/13 13:23:39;;;;;;;41.00;18.20;;;;;;;;;;103549;1286;60422;-89
2023/10/13 13:26:15;;;;;;;37.70;17.20;;;;;;;;;;103308;1289;60221;-88
2023/10/13 13:31:44;;;;;;;44.40;17.10;;;;;;;;;;103616;1290;60341;-89
2023/10/13 13:34:10;;;;;;;36.50;16.70;;;;;;;;;;103024;1291;444635;-88
2023/10/13 13:39:45;;;;;;;36.40;17.80;;;;;;;;;;103695;1285;60319;-90
2023/10/13 13:46:03;;;;;;;40.40;16.60;;;;;;;;;;103337;1291;60346;-89
2023/10/13 13:51:52;;;;;;;36.60;17.30;;;;;;;;;;103106;1289;600517;-91
2023/10/13 13:54:21;;;;;;;38.40;17.40;;;;;;;;;;102901;1298;60275;-91
2023/10/13 13:56:49;;;;;;;35.00;16.50;;;;;;;;;;102908;1296;60413;-90
2023/10/13 13:59:16;;;;;;;33.90;15.90;;;;;;;;;;102866;1293;60403;-91
2023/10/13 14:01:44;;;;;;;38.60;15.40;;;;;;;;;;103120;1293;60526;-91
2023/10/13 14:04:09;;;;;;;41.00;16.40;;;;;;;;;;103181;1289;60581;-91
2023/10/13 14:06:35;;;;;;;29.50;15.80;;;;;;;;;;106495;1285;438480;-92
2023/10/13 14:09:03;;;;;;;37.20;15.60;;;;;;;;;;106829;1285;58105;-92
2023/10/13 14:14:33;;;;;;;34.00;15.40;;;;;;;;;;106877;1285;60621;-94
2023/10/13 14:17:07;;;;;;;38.00;16.20;;;;;;;;;;106743;1285;60697;-92
2023/10/13 14:19:34;;;;;;;39.20;16.80;;;;;;;;;;106584;1285;58014;-92
2023/10/13 14:22:06;;;;;;;36.00;16.70;;;;;;;;;;106796;1285;58093;-91
2023/10/13 14:24:35;;;;;;;36.50;16.90;;;;;;;;;;106765;1285;59973;-92
2023/10/13 14:27:08;;;;;;;34.30;16.30;;;;;;;;;;106812;1285;60987;-93
2023/10/13 14:32:17;;;;;;;30.40;14.90;;;;;;;;;;106854;1285;58112;-91
2023/10/13 14:34:44;;;;;;;30.60;15.10;;;;;;;;;;106675;1285;58037;-91
2023/10/13 14:40:14;;;;;;;33.80;15.10;;;;;;;;;;106882;1285;60599;-91
2023/10/13 14:42:42;;;;;;;31.10;15.20;;;;;;;;;;106377;1291;59367;-90
2023/10/13 14:45:16;;;;;;;30.90;14.40;;;;;;;;;;106339;1288;58152;-91
2023/10/13 14:47:42;;;;;;;31.90;15.70;;;;;;;;;;106360;1288;58097;-91
2023/10/13 14:50:14;;;;;;;31.30;15.40;;;;;;;;;;106339;1288;58395;-90
2023/10/13 14:52:39;;;;;;;35.60;16.80;;;;;;;;;;106397;1288;62233;-90
2023/10/13 14:55:07;;;;;;;32.30;15.90;;;;;;;;;;106386;1288;58301;-90
2023/10/13 14:57:37;;;;;;;32.80;15.30;;;;;;;;;;106494;1288;58350;-92
2023/10/13 15:00:03;;;;;;;34.80;16.70;;;;;;;;;;106362;1288;58155;-92
2023/10/13 15:02:28;;;;;;;36.30;16.60;;;;;;;;;;106332;1288;58332;-91
2023/10/13 15:04:53;;;;;;;35.00;16.00;;;;;;;;;;106228;1288;58439;-91
2023/10/13 15:13:24;;;;;;;32.90;15.70;;;;;;;;;;106717;1285;58061;-94
2023/10/13 15:18:53;;;;;;;36.30;15.60;;;;;;;;;;106941;1285;59728;-96
2023/10/13 15:21:32;;;;;;;35.70;15.90;;;;;;;;;;106689;1285;58042;-94
2023/10/13 15:24:03;;;;;;;34.00;14.80;;;;;;;;;;106830;1285;58907;-95
2023/10/13 15:26:29;;;;;;;35.20;15.40;;;;;;;;;;106805;1285;58092;-95
2023/10/13 15:29:08;;;;;;;30.60;14.20;;;;;;;;;;106448;1288;58743;-94
2023/10/13 15:34:37;;;;;;;30.90;14.00;;;;;;;;;;106588;1288;59597;-95
2023/10/13 15:37:05;;;;;;;33.00;13.80;;;;;;;;;;106380;1288;58198;-95
2023/10/13 15:42:33;;;;;;;27.50;14.50;;;;;;;;;;106610;1289;58911;-94
2023/10/13 15:45:00;;;;;;;34.90;14.40;;;;;;;;;;106430;1288;58376;-94
2023/10/13 15:47:25;;;;;;;32.60;14.30;;;;;;;;;;106500;1288;58468;-95
2023/10/13 15:50:15;;;;;;;35.80;14.60;;;;;;;;;;106221;1293;58221;-94
2023/10/13 15:52:45;;;;;;;27.40;13.80;;;;;;;;;;106152;1292;58314;-94
2023/10/13 15:55:26;;;;;;;29.80;14.90;;;;;;;;;;106044;1294;59268;-93
2023/10/13 15:57:53;;;;;;;34.70;16.90;;;;;;;;;;106073;1294;60848;-95
2023/10/13 16:00:25;;;;;;;42.30;13.90;;;;;;;;;;106032;1294;59688;-95
2023/10/13 16:02:51;;;;;;;28.20;14.40;;;;;;;;;;105899;1296;58146;-94
2023/10/13 16:05:17;;;;;;;31.70;14.50;;;;;;;;;;105890;1296;58200;-94
2023/10/13 16:07:43;;;;;;;30.40;13.50;;;;;;;;;;105794;1297;58374;-93
2023/10/13 16:10:11;;;;;;;34.60;16.40;;;;;;;;;;105573;1300;58237;-93
2023/10/13 16:12:37;;;;;;;39.90;18.50;;;;;;;;;;105521;1300;60635;-91
2023/10/13 16:15:05;;;;;;;29.60;15.90;;;;;;;;;;105570;1300;58309;-91
2023/10/13 16:17:31;;;;;;;32.50;15.50;;;;;;;;;;105450;1302;58164;-90
2023/10/13 16:19:57;;;;;;;30.90;15.50;;;;;;;;;;105451;1302;58191;-90
2023/10/13 16:22:22;;;;;;;28.30;15.30;;;;;;;;;;105460;1302;58354;-90
2023/10/13 16:24:47;;;;;;;36.40;18.10;;;;;;;;;;105377;1301;58494;-91
2023/10/13 16:27:14;;;;;;;42.80;20.80;;;;;;;;;;105523;1296;58294;-91
2023/10/13 16:41:51;;;;;;;36.80;16.90;;;;;;;;;;106226;1291;58227;-91
2023/10/13 16:44:17;;;;;;;37.60;16.10;;;;;;;;;;106230;1291;61148;-91
2023/10/13 16:46:42;;;;;;;36.90;16.00;;;;;;;;;;106225;1291;58147;-90
2023/10/13 16:49:08;;;;;;;34.60;15.30;;;;;;;;;;106478;1285;58273;-90
2023/10/13 17:00:51;;;;;;;36.10;17.10;;;;;;;;;;106840;1285;59551;-90
2023/10/13 17:03:17;;;;;;;39.00;16.60;;;;;;;;;;106786;1285;59429;-89
2023/10/13 17:08:45;;;;;;;30.20;15.10;;;;;;;;;;106828;1285;58419;-90
2023/10/13 17:14:14;;;;;;;38.30;19.20;;;;;;;;;;106809;1285;59407;-91
2023/10/13 17:16:41;;;;;;;37.20;18.90;;;;;;;;;;106626;1285;58068;-87
2023/10/13 17:19:12;;;;;;;43.80;18.90;;;;;;;;;;106440;1288;58204;-87
2023/10/13 17:21:37;;;;;;;44.10;20.50;;;;;;;;;;106351;1288;58655;-88
2023/10/13 17:27:07;;;;;;;50.60;22.50;;;;;;;;;;106459;1288;59636;-86
2023/10/13 17:29:35;;;;;;;47.10;20.40;;;;;;;;;;106309;1288;60547;-88
2023/10/13 17:32:02;;;;;;;39.90;20.00;;;;;;;;;;106263;1288;58376;-87
2023/10/13 17:34:28;;;;;;;42.30;19.90;;;;;;;;;;106465;1288;58049;-87
2023/10/13 17:36:56;;;;;;;39.40;19.60;;;;;;;;;;106276;1288;58125;-86
2023/10/13 17:39:21;;;;;;;155.60;25.30;;;;;;;;;;106432;1288;61105;-88
2023/10/13 17:44:49;;;;;;;100.50;29.10;;;;;;;;;;106433;1288;58135;-87
2023/10/13 17:47:14;;;;;;;65.90;29.50;;;;;;;;;;106439;1288;58285;-87
2023/10/13 17:49:43;;;;;;;53.10;22.40;;;;;;;;;;106546;1289;58288;-87
2023/10/13 17:52:08;;;;;;;85.80;21.60;;;;;;;;;;106700;1285;58379;-87
2023/10/13 17:54:34;;;;;;;37.60;17.70;;;;;;;;;;106817;1285;58158;-89
2023/10/13 17:57:06;;;;;;;34.40;17.60;;;;;;;;;;106825;1285;58172;-87
2023/10/13 17:59:32;;;;;;;37.80;17.30;;;;;;;;;;106829;1285;58540;-88
2023/10/13 18:01:58;;;;;;;31.70;15.50;;;;;;;;;;106343;1288;58322;-88
2023/10/13 18:04:23;;;;;;;30.20;15.20;;;;;;;;;;106501;1288;58421;-87
2023/10/13 18:06:48;;;;;;;36.10;16.40;;;;;;;;;;106338;1288;58290;-87
2023/10/13 18:09:16;;;;;;;35.50;17.50;;;;;;;;;;106393;1288;58453;-87
2023/10/13 18:11:42;;;;;;;33.70;17.70;;;;;;;;;;106492;1288;62060;-88
2023/10/13 18:17:15;;;;;;;28.70;15.70;;;;;;;;;;106493;1288;59570;-87
2023/10/13 18:19:42;;;;;;;34.80;17.30;;;;;;;;;;106266;1288;58263;-87
2023/10/13 18:22:15;;;;;;;32.90;18.10;;;;;;;;;;106503;1288;58264;-87
2023/10/13 18:24:41;;;;;;;40.50;18.90;;;;;;;;;;106441;1288;62098;-87
2023/10/13 18:27:06;;;;;;;43.60;20.80;;;;;;;;;;106492;1288;58228;-88
2023/10/13 18:29:32;;;;;;;51.20;22.50;;;;;;;;;;106447;1289;58367;-88
2023/10/13 18:31:58;;;;;;;59.70;26.00;;;;;;;;;;106340;1288;58194;-88
2023/10/13 18:34:24;;;;;;;58.70;25.60;;;;;;;;;;106790;1285;59457;-88
2023/10/13 18:36:51;;;;;;;65.10;28.90;;;;;;;;;;106772;1285;58895;-86
2023/10/13 18:39:24;;;;;;;67.20;26.30;;;;;;;;;;106831;1285;58235;-87
2023/10/13 18:41:50;;;;;;;55.90;24.90;;;;;;;;;;106691;1285;59686;-87
2023/10/13 18:44:16;;;;;;;43.20;20.10;;;;;;;;;;106839;1285;58176;-87
2023/10/13 18:46:41;;;;;;;54.00;23.70;;;;;;;;;;106840;1285;58167;-88
2023/10/13 18:49:10;;;;;;;53.50;22.60;;;;;;;;;;106512;1285;58619;-87
2023/10/13 18:51:36;;;;;;;57.20;25.30;;;;;;;;;;106843;1286;58485;-88
2023/10/13 18:54:01;;;;;;;49.90;23.80;;;;;;;;;;106789;1285;58257;-88
2023/10/13 18:56:28;;;;;;;53.80;26.10;;;;;;;;;;106767;1285;58251;-87
2023/10/13 18:58:54;;;;;;;65.60;27.30;;;;;;;;;;106813;1285;58285;-89
2023/10/13 19:01:27;;;;;;;148.70;28.90;;;;;;;;;;106833;1286;58613;-88
2023/10/13 19:03:59;;;;;;;59.90;25.80;;;;;;;;;;106743;1285;60709;-89
2023/10/13 19:06:27;;;;;;;103.00;29.80;;;;;;;;;;106687;1285;60986;-88
2023/10/13 19:08:53;;;;;;;124.20;35.40;;;;;;;;;;106752;1285;58664;-88
2023/10/13 19:17:26;;;;;;;180.00;42.30;;;;;;;;;;106808;1285;60763;-87
2023/10/13 19:19:52;;;;;;;145.90;42.50;;;;;;;;;;106836;1285;60637;-88
2023/10/13 19:22:17;;;;;;;262.60;53.40;;;;;;;;;;106690;1285;58195;-87
2023/10/13 19:24:43;;;;;;;167.00;50.60;;;;;;;;;;106721;1285;58593;-88
2023/10/13 19:27:08;;;;;;;162.10;52.30;;;;;;;;;;106831;1285;58680;-87
2023/10/13 19:29:33;;;;;;;153.20;51.60;;;;;;;;;;106855;1285;58165;-87
2023/10/13 19:32:00;;;;;;;209.20;50.40;;;;;;;;;;106540;1285;58280;-86
2023/10/13 19:34:26;;;;;;;225.70;53.30;;;;;;;;;;106765;1289;58258;-86
2023/10/13 19:39:59;;;;;;;195.70;70.70;;;;;;;;;;106777;1285;59691;-86
2023/10/13 19:51:33;;;;;;;263.00;87.60;;;;;;;;;;106826;1285;60745;-87
2023/10/13 19:57:03;;;;;;;219.60;78.00;;;;;;;;;;106791;1285;59603;-87
2023/10/13 19:59:30;;;;;;;204.80;72.20;;;;;;;;;;106526;1286;58624;-86
2023/10/13 20:01:55;;;;;;;169.40;66.30;;;;;;;;;;106760;1285;58185;-87
2023/10/13 20:04:21;;;;;;;206.80;72.00;;;;;;;;;;106546;1285;58648;-87
2023/10/13 20:06:46;;;;;;;223.80;74.20;;;;;;;;;;106800;1285;58614;-86
2023/10/13 20:12:16;;;;;;;175.80;62.10;;;;;;;;;;106798;1285;58167;-88
2023/10/13 20:14:41;;;;;;;164.80;62.70;;;;;;;;;;106802;1285;58367;-87
2023/10/13 20:17:07;;;;;;;158.30;59.20;;;;;;;;;;106785;1285;58308;-88
2023/10/13 20:19:32;;;;;;;171.20;60.20;;;;;;;;;;106814;1285;58466;-87
2023/10/13 20:22:03;;;;;;;187.30;64.00;;;;;;;;;;106790;1285;58209;-87
2023/10/13 20:27:31;;;;;;;190.70;68.80;;;;;;;;;;106790;1285;58282;-87
2023/10/13 20:32:59;;;;;;;241.90;77.60;;;;;;;;;;106804;1285;60560;-86
2023/10/13 20:35:25;;;;;;;202.70;70.40;;;;;;;;;;106763;1285;58347;-87
2023/10/13 20:37:53;;;;;;;177.60;56.90;;;;;;;;;;106509;1285;58236;-88
2023/10/13 20:40:18;;;;;;;160.90;54.70;;;;;;;;;;106796;1285;58229;-88
2023/10/13 20:45:46;;;;;;;172.50;44.40;;;;;;;;;;106832;1285;59544;-88
2023/10/13 20:51:15;;;;;;;148.10;43.50;;;;;;;;;;106789;1285;58201;-87
2023/10/13 20:53:41;;;;;;;110.90;38.00;;;;;;;;;;106818;1285;58676;-88
2023/10/13 20:56:07;;;;;;;99.80;31.10;;;;;;;;;;106820;1290;58287;-88
2023/10/13 20:58:33;;;;;;;112.30;33.20;;;;;;;;;;106594;1285;58575;-89
2023/10/13 21:04:01;;;;;;;121.80;34.30;;;;;;;;;;106222;1290;58332;-88
2023/10/13 21:06:27;;;;;;;102.90;31.10;;;;;;;;;;106264;1291;58285;-89
2023/10/13 21:08:55;;;;;;;114.90;32.60;;;;;;;;;;106281;1291;58170;-89
2023/10/13 21:11:21;;;;;;;114.40;29.50;;;;;;;;;;106277;1291;58223;-90
2023/10/13 21:13:46;;;;;;;102.40;27.90;;;;;;;;;;106183;1291;58445;-88
2023/10/13 21:16:12;;;;;;;126.50;25.90;;;;;;;;;;105993;1291;58607;-88
2023/10/13 21:18:43;;;;;;;94.50;24.20;;;;;;;;;;106277;1291;58333;-90
2023/10/13 21:21:21;;;;;;;74.80;21.00;;;;;;;;;;106246;1291;61834;-89
2023/10/13 21:23:50;;;;;;;74.30;21.10;;;;;;;;;;106204;1291;60624;-90
2023/10/13 21:29:18;;;;;;;77.60;22.80;;;;;;;;;;106222;1291;58224;-89
2023/10/13 21:34:50;;;;;;;37.70;15.50;;;;;;;;;;106838;1286;60773;-90
2023/10/13 21:40:18;;;;;;;72.00;19.70;;;;;;;;;;106771;1286;59851;-89
2023/10/13 21:48:50;;;;;;;41.90;16.40;;;;;;;;;;106749;1285;60969;-90
2023/10/13 21:54:18;;;;;;;38.00;15.00;;;;;;;;;;106789;1285;59704;-90
2023/10/13 22:02:49;;;;;;;59.30;19.30;;;;;;;;;;106774;1286;60756;-90
2023/10/13 22:08:18;;;;;;;89.90;20.30;;;;;;;;;;106778;1285;59433;-90
2023/10/13 22:16:51;;;;;;;77.40;19.20;;;;;;;;;;106837;1285;61032;-91
2023/10/13 22:19:20;;;;;;;60.20;21.70;;;;;;;;;;106457;1294;61689;-90
2023/10/13 22:27:51;;;;;;;88.40;23.40;;;;;;;;;;106860;1286;58440;-92
2023/10/13 22:33:19;;;;;;;91.80;24.30;;;;;;;;;;106806;1286;59588;-90
2023/10/13 22:35:44;;;;;;;65.10;23.90;;;;;;;;;;106831;1286;58723;-92
2023/10/13 22:38:11;;;;;;;61.60;22.70;;;;;;;;;;106840;1286;58232;-91
2023/10/13 22:40:40;;;;;;;82.50;23.40;;;;;;;;;;106701;1286;58293;-90
2023/10/13 22:46:08;;;;;;;68.80;24.50;;;;;;;;;;106783;1286;59560;-90
2023/10/13 22:48:37;;;;;;;48.60;23.50;;;;;;;;;;106719;1286;58648;-91
2023/10/13 22:51:03;;;;;;;91.70;23.30;;;;;;;;;;106614;1286;58912;-91
2023/10/13 22:53:29;;;;;;;82.10;23.70;;;;;;;;;;106720;1286;58502;-91
2023/10/13 22:55:55;;;;;;;162.20;28.10;;;;;;;;;;106609;1287;58311;-91
2023/10/13 23:01:23;;;;;;;146.60;28.00;;;;;;;;;;106825;1285;59569;-91
2023/10/13 23:09:58;;;;;;;74.90;24.30;;;;;;;;;;106869;1285;61006;-91
2023/10/13 23:18:29;;;;;;;129.70;26.50;;;;;;;;;;106842;1285;58173;-91
2023/10/13 23:20:54;;;;;;;155.30;25.40;;;;;;;;;;106756;1285;58252;-92
2023/10/13 23:29:25;;;;;;;123.00;24.60;;;;;;;;;;106477;1288;59487;-91
2023/10/13 23:41:01;;;;;;;100.40;26.10;;;;;;;;;;106521;1288;60605;-90
2023/10/13 23:43:27;;;;;;;114.60;27.00;;;;;;;;;;106362;1288;61040;-92
2023/10/13 23:52:01;;;;;;;126.40;26.10;;;;;;;;;;106528;1288;60727;-91
2023/10/13 23:57:29;;;;;;;114.80;24.60;;;;;;;;;;106830;1285;59410;-90
